createdAt,value
2022-07-25T00:00:28.262Z,17.80
2022-07-25T00:02:55.152Z,17.70
2022-07-25T00:05:22.265Z,17.80
2022-07-25T00:07:49.567Z,17.70
2022-07-25T00:10:24.919Z,17.60
2022-07-25T00:12:51.847Z,17.60
2022-07-25T00:15:18.803Z,17.60
2022-07-25T00:17:45.696Z,17.60
2022-07-25T00:20:12.891Z,17.60
2022-07-25T00:22:39.812Z,17.50
2022-07-25T00:25:07.031Z,17.50
2022-07-25T00:27:33.960Z,17.50
2022-07-25T00:30:00.809Z,17.50
2022-07-25T00:32:27.962Z,17.50
2022-07-25T00:34:54.839Z,17.60
2022-07-25T00:37:22.295Z,17.60
2022-07-25T00:39:49.139Z,17.70
2022-07-25T00:42:17.011Z,17.60
2022-07-25T00:44:44.283Z,17.60
2022-07-25T00:47:11.176Z,17.50
2022-07-25T00:49:38.131Z,17.50
2022-07-25T00:52:05.500Z,17.50
2022-07-25T00:54:35.374Z,17.60
2022-07-25T00:57:02.399Z,17.50
2022-07-25T00:59:29.533Z,17.50
2022-07-25T01:01:56.661Z,17.50
2022-07-25T01:04:26.156Z,17.60
2022-07-25T01:07:14.825Z,17.50
2022-07-25T01:09:41.762Z,17.50
2022-07-25T01:12:08.849Z,17.40
2022-07-25T01:14:37.204Z,17.30
2022-07-25T01:17:04.348Z,17.50
2022-07-25T01:19:31.362Z,17.30
2022-07-25T01:21:58.244Z,17.30
2022-07-25T01:24:25.166Z,17.20
2022-07-25T01:26:52.536Z,17.10
2022-07-25T01:29:19.445Z,17.10
2022-07-25T01:31:46.385Z,17.10
2022-07-25T01:34:13.275Z,17.10
2022-07-25T01:36:40.176Z,17.10
2022-07-25T01:39:07.117Z,17.10
2022-07-25T01:41:33.968Z,17.00
2022-07-25T01:44:00.983Z,17.00
2022-07-25T01:46:28.159Z,17.00
2022-07-25T01:48:55.365Z,16.90
2022-07-25T01:51:22.280Z,16.80
2022-07-25T01:53:49.135Z,16.80
2022-07-25T01:56:16.091Z,16.80
2022-07-25T01:58:42.956Z,16.70
2022-07-25T02:01:09.967Z,16.70
2022-07-25T02:03:43.145Z,16.70
2022-07-25T02:06:10.057Z,16.70
2022-07-25T02:08:36.938Z,16.60
2022-07-25T02:11:03.885Z,16.50
2022-07-25T02:13:30.826Z,16.50
2022-07-25T02:15:57.848Z,16.50
2022-07-25T02:18:24.780Z,16.50
2022-07-25T02:20:54.396Z,16.50
2022-07-25T02:23:21.250Z,16.50
2022-07-25T02:25:48.239Z,16.40
2022-07-25T02:28:15.121Z,16.40
2022-07-25T02:30:42.352Z,16.40
2022-07-25T02:33:09.293Z,16.40
2022-07-25T02:35:36.272Z,16.40
2022-07-25T02:38:03.098Z,16.40
2022-07-25T02:40:31.243Z,16.30
2022-07-25T02:42:58.139Z,16.30
2022-07-25T02:45:25.168Z,16.30
2022-07-25T02:47:54.642Z,16.30
2022-07-25T02:50:36.144Z,16.20
2022-07-25T02:53:03.610Z,16.10
2022-07-25T02:55:39.640Z,16.10
2022-07-25T02:58:06.723Z,16.10
2022-07-25T03:00:58.178Z,16.10
2022-07-25T03:03:25.173Z,16.00
2022-07-25T03:05:52.545Z,16.10
2022-07-25T03:08:19.651Z,16.10
2022-07-25T03:10:46.770Z,16.10
2022-07-25T03:13:13.671Z,16.10
2022-07-25T03:15:40.571Z,16.10
2022-07-25T03:20:52.777Z,16.20
2022-07-25T03:23:19.755Z,16.20
2022-07-25T03:25:46.727Z,16.30
2022-07-25T03:28:13.657Z,16.30
2022-07-25T03:30:46.587Z,16.40
2022-07-25T03:33:13.448Z,16.30
2022-07-25T03:35:40.502Z,16.40
2022-07-25T03:38:07.778Z,16.50
2022-07-25T03:40:38.270Z,16.50
2022-07-25T03:43:05.303Z,16.60
2022-07-25T03:45:32.399Z,16.60
2022-07-25T03:47:59.519Z,16.60
2022-07-25T03:50:26.443Z,16.60
2022-07-25T03:52:53.292Z,16.70
2022-07-25T03:55:21.631Z,16.70
2022-07-25T03:57:48.528Z,16.80
2022-07-25T04:00:15.585Z,16.90
2022-07-25T04:02:42.599Z,16.90
2022-07-25T04:05:10.731Z,17.00
2022-07-25T04:07:38.223Z,17.00
2022-07-25T04:10:06.434Z,17.10
2022-07-25T04:12:33.733Z,17.20
2022-07-25T04:15:00.557Z,17.30
2022-07-25T04:17:27.540Z,17.30
2022-07-25T04:19:54.537Z,17.40
2022-07-25T04:22:24.864Z,17.50
2022-07-25T04:24:54.408Z,17.50
2022-07-25T04:27:24.433Z,17.70
2022-07-25T04:29:51.349Z,17.60
2022-07-25T04:32:23.301Z,17.70
2022-07-25T04:35:06.029Z,17.70
2022-07-25T04:37:39.054Z,17.70
2022-07-25T04:40:06.395Z,17.90
2022-07-25T04:42:33.255Z,18.00
2022-07-25T04:45:00.290Z,17.90
2022-07-25T04:47:27.213Z,18.00
2022-07-25T04:49:55.765Z,18.00
2022-07-25T04:52:43.092Z,18.10
2022-07-25T04:55:10.658Z,18.10
2022-07-25T04:57:40.991Z,18.20
2022-07-25T05:00:10.118Z,18.30
2022-07-25T05:02:37.799Z,18.20
2022-07-25T05:05:08.674Z,18.20
2022-07-25T05:07:49.053Z,18.20
2022-07-25T05:10:15.992Z,18.40
2022-07-25T05:12:49.352Z,18.30
2022-07-25T05:15:19.647Z,18.40
2022-07-25T05:17:46.921Z,18.30
2022-07-25T05:20:15.235Z,18.50
2022-07-25T05:22:51.094Z,18.60
2022-07-25T05:25:18.408Z,18.70
2022-07-25T05:27:45.981Z,18.70
2022-07-25T05:30:14.973Z,18.70
2022-07-25T05:32:42.452Z,18.70
2022-07-25T05:35:12.405Z,18.80
2022-07-25T05:37:40.118Z,18.80
2022-07-25T05:40:07.887Z,18.90
2022-07-25T05:42:37.377Z,19.00
2022-07-25T05:45:05.251Z,19.10
2022-07-25T05:47:32.215Z,19.10
2022-07-25T05:49:59.410Z,19.20
2022-07-25T05:52:26.266Z,19.20
2022-07-25T05:54:53.360Z,19.30
2022-07-25T05:57:20.305Z,19.40
2022-07-25T05:59:47.220Z,19.50
2022-07-25T06:02:14.625Z,19.60
2022-07-25T06:04:41.577Z,19.60
2022-07-25T06:07:08.556Z,19.80
2022-07-25T06:09:38.683Z,19.70
2022-07-25T06:12:06.103Z,19.70
2022-07-25T06:14:53.515Z,19.80
2022-07-25T06:17:20.438Z,19.80
2022-07-25T06:19:47.512Z,20.00
2022-07-25T06:22:32.912Z,19.90
2022-07-25T06:25:10.114Z,19.90
2022-07-25T06:27:43.356Z,20.00
2022-07-25T06:30:20.118Z,20.00
2022-07-25T06:32:49.383Z,20.10
2022-07-25T06:35:22.288Z,20.20
2022-07-25T06:38:03.797Z,20.40
2022-07-25T06:40:33.008Z,20.50
2022-07-25T06:42:59.909Z,20.60
2022-07-25T06:45:26.777Z,20.50
2022-07-25T06:47:56.105Z,20.40
2022-07-25T06:50:22.951Z,20.50
2022-07-25T06:52:56.269Z,20.40
2022-07-25T06:55:23.282Z,20.50
2022-07-25T06:57:50.245Z,20.60
2022-07-25T07:00:17.649Z,20.80
2022-07-25T07:03:01.581Z,20.90
2022-07-25T07:05:32.131Z,20.90
2022-07-25T07:08:02.645Z,21.00
2022-07-25T07:10:33.058Z,21.00
2022-07-25T07:13:10.339Z,21.10
2022-07-25T07:15:38.497Z,21.20
2022-07-25T07:18:06.988Z,21.30
2022-07-25T07:20:34.309Z,21.30
2022-07-25T07:23:01.356Z,21.10
2022-07-25T07:25:28.667Z,21.20
2022-07-25T07:27:55.752Z,21.30
2022-07-25T07:30:58.572Z,21.40
2022-07-25T07:33:25.286Z,21.60
2022-07-25T07:35:52.458Z,21.90
2022-07-25T07:38:19.329Z,21.90
2022-07-25T07:40:48.226Z,22.10
2022-07-25T07:43:17.456Z,22.20
2022-07-25T07:45:44.367Z,22.30
2022-07-25T07:48:11.297Z,22.40
2022-07-25T07:50:38.368Z,22.50
2022-07-25T07:53:07.100Z,22.60
2022-07-25T07:55:46.763Z,22.80
2022-07-25T07:58:15.980Z,22.70
2022-07-25T08:00:47.577Z,22.70
2022-07-25T08:03:23.783Z,22.60
2022-07-25T08:05:57.040Z,22.40
2022-07-25T08:08:29.124Z,22.40
2022-07-25T08:11:00.409Z,22.00
2022-07-25T08:13:38.300Z,21.90
2022-07-25T08:16:05.775Z,22.10
2022-07-25T08:18:33.532Z,22.20
2022-07-25T08:21:06.345Z,22.40
2022-07-25T08:23:39.136Z,22.70
2022-07-25T08:32:56.355Z,24.80
2022-07-25T08:35:25.538Z,25.40
2022-07-25T08:37:52.855Z,26.00
2022-07-25T08:40:22.090Z,26.40
2022-07-25T08:42:49.943Z,26.80
2022-07-25T08:45:19.702Z,26.90
2022-07-25T08:47:48.213Z,27.60
2022-07-25T08:50:18.230Z,28.20
2022-07-25T08:52:49.337Z,28.60
2022-07-25T08:55:23.249Z,29.00
2022-07-25T08:57:54.602Z,28.90
2022-07-25T09:00:27.028Z,28.50
2022-07-25T09:02:59.569Z,28.40
2022-07-25T09:05:28.484Z,28.70
2022-07-25T09:07:56.455Z,28.20
2022-07-25T09:10:29.013Z,27.90
2022-07-25T09:13:01.915Z,28.20
2022-07-25T09:15:36.791Z,28.40
2022-07-25T09:18:14.658Z,28.90
2022-07-25T09:20:49.839Z,28.70
2022-07-25T09:23:37.777Z,28.80
2022-07-25T09:26:13.141Z,28.80
2022-07-25T09:28:53.312Z,28.50
2022-07-25T09:31:20.376Z,28.40
2022-07-25T09:33:59.552Z,28.50
2022-07-25T09:36:26.513Z,28.70
2022-07-25T09:38:57.098Z,28.40
2022-07-25T09:41:34.385Z,28.20
2022-07-25T09:44:01.284Z,28.40
2022-07-25T09:46:32.237Z,28.30
2022-07-25T09:49:00.666Z,27.60
2022-07-25T09:51:29.121Z,28.00
2022-07-25T09:53:56.193Z,28.50
2022-07-25T09:56:23.041Z,28.90
2022-07-25T09:58:50.593Z,28.60
2022-07-25T10:01:25.319Z,28.60
2022-07-25T10:04:22.124Z,29.10
2022-07-25T10:07:06.115Z,29.10
2022-07-25T10:09:33.207Z,29.60
2022-07-25T10:12:06.879Z,29.60
2022-07-25T10:14:34.734Z,29.40
2022-07-25T10:17:02.354Z,29.90
2022-07-25T10:19:47.440Z,30.00
2022-07-25T10:22:22.786Z,30.30
2022-07-25T10:25:12.603Z,30.50
2022-07-25T10:27:48.793Z,29.50
2022-07-25T10:30:43.696Z,30.00
2022-07-25T10:33:17.927Z,30.50
2022-07-25T10:35:45.789Z,30.60
2022-07-25T10:38:12.780Z,30.90
2022-07-25T10:40:44.927Z,29.90
2022-07-25T10:43:19.634Z,29.90
2022-07-25T10:45:54.959Z,30.60
2022-07-25T10:48:27.364Z,30.00
2022-07-25T10:51:12.018Z,30.00
2022-07-25T10:53:48.401Z,30.40
2022-07-25T10:56:25.015Z,30.70
2022-07-25T10:58:58.759Z,31.00
2022-07-25T11:01:27.272Z,30.70
2022-07-25T11:03:56.875Z,30.80
2022-07-25T11:06:37.173Z,31.80
2022-07-25T11:09:27.544Z,32.00
2022-07-25T11:11:58.458Z,32.60
2022-07-25T11:14:33.090Z,32.70
2022-07-25T11:17:15.064Z,33.00
2022-07-25T11:19:55.218Z,32.70
2022-07-25T11:22:22.416Z,32.80
2022-07-25T11:24:49.385Z,33.30
2022-07-25T11:27:25.842Z,33.80
2022-07-25T11:29:53.769Z,34.20
2022-07-25T11:32:21.243Z,32.90
2022-07-25T11:34:50.568Z,32.80
2022-07-25T11:37:18.360Z,33.00
2022-07-25T11:39:47.104Z,33.60
2022-07-25T11:42:16.867Z,34.20
2022-07-25T11:44:49.483Z,34.90
2022-07-25T11:47:33.205Z,34.90
2022-07-25T11:50:05.442Z,35.40
2022-07-25T11:52:35.279Z,35.60
2022-07-25T11:55:11.355Z,35.70
2022-07-25T11:57:41.306Z,35.90
2022-07-25T12:00:17.744Z,36.30
2022-07-25T12:02:45.286Z,36.00
2022-07-25T12:05:14.406Z,35.40
2022-07-25T12:07:55.649Z,35.70
2022-07-25T12:10:34.158Z,35.20
2022-07-25T12:13:02.506Z,35.00
2022-07-25T12:15:32.162Z,35.40
2022-07-25T12:18:00.101Z,35.80
2022-07-25T12:20:33.279Z,35.90
2022-07-25T12:23:04.619Z,36.20
2022-07-25T12:25:32.377Z,36.80
2022-07-25T12:28:00.360Z,37.00
2022-07-25T12:30:29.160Z,37.00
2022-07-25T12:32:57.970Z,37.10
2022-07-25T12:35:25.856Z,37.20
2022-07-25T12:37:53.242Z,37.50
2022-07-25T12:40:20.293Z,37.30
2022-07-25T12:42:48.175Z,36.80
2022-07-25T12:45:18.173Z,37.10
2022-07-25T12:47:47.768Z,37.50
2022-07-25T12:50:15.762Z,37.70
2022-07-25T12:52:43.602Z,37.70
2022-07-25T12:55:12.665Z,37.60
2022-07-25T12:57:40.107Z,37.90
2022-07-25T13:00:10.996Z,37.30
2022-07-25T13:02:38.224Z,37.00
2022-07-25T13:05:06.395Z,37.00
2022-07-25T13:07:34.381Z,36.60
2022-07-25T13:10:02.006Z,35.90
2022-07-25T13:12:32.452Z,36.20
2022-07-25T13:14:59.844Z,36.30
2022-07-25T13:17:27.918Z,37.20
2022-07-25T13:19:56.743Z,37.40
2022-07-25T13:22:24.797Z,37.40
2022-07-25T13:24:52.882Z,37.60
2022-07-25T13:27:21.332Z,37.60
2022-07-25T13:29:54.068Z,37.50
2022-07-25T13:32:22.123Z,37.10
2022-07-25T13:34:49.090Z,36.90
2022-07-25T13:37:16.521Z,37.40
2022-07-25T13:39:43.427Z,36.90
2022-07-25T13:42:11.394Z,37.40
2022-07-25T13:44:38.416Z,38.20
2022-07-25T13:47:05.555Z,38.30
2022-07-25T13:49:32.608Z,37.80
2022-07-25T13:51:59.444Z,37.90
2022-07-25T13:54:26.296Z,38.10
2022-07-25T13:56:53.141Z,38.20
2022-07-25T13:59:21.712Z,38.50
2022-07-25T14:01:50.325Z,38.40
2022-07-25T14:04:17.582Z,38.20
2022-07-25T14:06:44.629Z,38.40
2022-07-25T14:09:11.785Z,38.70
2022-07-25T14:11:38.690Z,38.80
2022-07-25T14:14:05.662Z,38.90
2022-07-25T14:16:34.110Z,38.30
2022-07-25T14:19:02.278Z,38.10
2022-07-25T14:21:29.948Z,38.20
2022-07-25T14:23:56.805Z,37.90
2022-07-25T14:26:23.848Z,38.10
2022-07-25T14:28:50.985Z,37.70
2022-07-25T14:31:17.978Z,37.70
2022-07-25T14:33:44.958Z,37.90
2022-07-25T14:36:12.807Z,38.10
2022-07-25T14:38:52.215Z,38.00
2022-07-25T14:41:19.647Z,38.50
2022-07-25T14:43:46.904Z,39.00
2022-07-25T14:46:14.151Z,39.10
2022-07-25T14:48:41.494Z,38.90
2022-07-25T14:51:08.495Z,38.90
2022-07-25T14:53:36.147Z,39.00
2022-07-25T14:56:05.379Z,38.60
2022-07-25T14:58:33.594Z,38.50
2022-07-25T15:01:00.633Z,38.60
2022-07-25T15:03:27.671Z,38.80
2022-07-25T15:05:54.621Z,38.90
2022-07-25T15:08:21.489Z,39.00
2022-07-25T15:10:48.707Z,39.00
2022-07-25T15:13:32.446Z,38.60
2022-07-25T15:16:00.635Z,38.50
2022-07-25T15:18:27.772Z,38.80
2022-07-25T15:20:55.491Z,39.10
2022-07-25T15:23:24.911Z,39.20
2022-07-25T15:26:01.810Z,39.20
2022-07-25T15:28:29.811Z,38.30
2022-07-25T15:30:57.425Z,38.30
2022-07-25T15:33:25.437Z,38.40
2022-07-25T15:35:52.369Z,38.70
2022-07-25T15:38:20.068Z,38.90
2022-07-25T15:40:48.016Z,39.10
2022-07-25T15:43:14.963Z,39.10
2022-07-25T15:45:43.842Z,39.10
2022-07-25T15:48:12.625Z,39.10
2022-07-25T15:50:51.787Z,39.10
2022-07-25T15:53:22.109Z,39.10
2022-07-25T15:55:49.320Z,39.20
2022-07-25T15:58:16.464Z,39.00
2022-07-25T16:00:43.854Z,39.00
2022-07-25T16:03:11.572Z,38.60
2022-07-25T16:05:39.485Z,38.60
2022-07-25T16:08:10.133Z,38.70
2022-07-25T16:10:37.332Z,38.40
2022-07-25T16:13:04.633Z,38.00
2022-07-25T16:15:31.483Z,37.80
2022-07-25T16:18:02.532Z,37.70
2022-07-25T16:20:31.964Z,37.60
2022-07-25T16:22:59.487Z,37.10
2022-07-25T16:25:28.043Z,36.70
2022-07-25T16:27:55.696Z,36.60
2022-07-25T16:30:22.924Z,36.70
2022-07-25T16:32:49.798Z,36.10
2022-07-25T16:35:16.910Z,35.40
2022-07-25T16:37:44.875Z,34.40
2022-07-25T16:40:12.528Z,33.70
2022-07-25T16:42:39.728Z,33.10
2022-07-25T16:45:07.173Z,32.50
2022-07-25T16:47:34.132Z,32.00
2022-07-25T16:50:01.035Z,31.50
2022-07-25T16:52:28.035Z,31.20
2022-07-25T16:54:54.914Z,31.00
2022-07-25T16:57:24.758Z,30.70
2022-07-25T16:59:53.600Z,30.40
2022-07-25T17:02:26.166Z,30.00
2022-07-25T17:04:56.090Z,29.70
2022-07-25T17:07:23.485Z,29.30
2022-07-25T17:09:50.433Z,29.00
2022-07-25T17:12:17.700Z,28.80
2022-07-25T17:14:45.042Z,28.60
2022-07-25T17:17:11.947Z,28.40
2022-07-25T17:19:40.078Z,28.30
2022-07-25T17:22:07.867Z,28.20
2022-07-25T17:24:38.976Z,28.10
2022-07-25T17:27:07.594Z,28.00
2022-07-25T17:29:34.445Z,27.90
2022-07-25T17:32:01.492Z,27.80
2022-07-25T17:34:28.589Z,27.60
2022-07-25T17:36:55.780Z,27.60
2022-07-25T17:39:22.724Z,27.50
2022-07-25T17:41:52.519Z,27.40
2022-07-25T17:44:20.129Z,27.30
2022-07-25T17:46:47.606Z,27.20
2022-07-25T17:49:14.588Z,27.00
2022-07-25T17:51:42.034Z,27.00
2022-07-25T17:54:09.540Z,26.90
2022-07-25T17:56:37.664Z,27.00
2022-07-25T17:59:05.185Z,27.00
2022-07-25T18:01:32.860Z,27.10
2022-07-25T18:03:59.831Z,27.10
2022-07-25T18:06:29.874Z,27.10
2022-07-25T18:08:57.455Z,27.10
2022-07-25T18:11:24.533Z,27.10
2022-07-25T18:13:51.418Z,27.00
2022-07-25T18:16:22.108Z,26.90
2022-07-25T18:18:51.968Z,26.80
2022-07-25T18:21:19.447Z,26.60
2022-07-25T18:23:46.337Z,26.40
2022-07-25T18:26:13.201Z,26.30
2022-07-25T18:28:40.565Z,26.20
2022-07-25T18:31:11.021Z,26.10
2022-07-25T18:33:38.065Z,25.90
2022-07-25T18:36:07.585Z,25.80
2022-07-25T18:38:36.541Z,25.60
2022-07-25T18:41:27.503Z,25.60
2022-07-25T18:43:52.992Z,25.50
2022-07-25T18:46:20.207Z,25.30
2022-07-25T18:48:47.669Z,25.20
2022-07-25T18:51:14.732Z,25.10
2022-07-25T18:53:45.978Z,25.00
2022-07-25T18:56:15.279Z,25.00
2022-07-25T18:58:42.192Z,24.80
2022-07-25T19:01:09.599Z,24.80
2022-07-25T19:03:39.886Z,24.70
2022-07-25T19:06:08.739Z,24.60
2022-07-25T19:08:35.763Z,24.60
2022-07-25T19:11:02.883Z,24.50
2022-07-25T19:16:17.103Z,24.40
2022-07-25T19:18:44.109Z,24.30
2022-07-25T19:21:11.165Z,24.20
2022-07-25T19:23:38.849Z,24.20
2022-07-25T19:26:06.300Z,24.10
2022-07-25T19:28:34.828Z,24.00
2022-07-25T19:31:02.298Z,24.00
2022-07-25T19:33:34.704Z,24.00
2022-07-25T19:36:04.075Z,23.90
2022-07-25T19:38:31.259Z,23.90
2022-07-25T19:40:58.310Z,23.90
2022-07-25T19:43:25.635Z,23.80
2022-07-25T19:45:52.644Z,23.70
2022-07-25T19:48:23.855Z,23.70
2022-07-25T19:50:52.147Z,23.60
2022-07-25T19:53:19.070Z,23.60
2022-07-25T19:55:46.205Z,23.50
2022-07-25T19:58:13.454Z,23.40
2022-07-25T20:00:40.562Z,23.40
2022-07-25T20:03:07.596Z,23.40
2022-07-25T20:05:34.806Z,23.30
2022-07-25T20:08:01.623Z,23.20
2022-07-25T20:10:28.570Z,23.20
2022-07-25T20:12:59.580Z,23.10
2022-07-25T20:15:28.439Z,23.10
2022-07-25T20:17:56.909Z,23.10
2022-07-25T20:20:24.456Z,23.00
2022-07-25T20:22:51.947Z,23.00
2022-07-25T20:25:18.891Z,22.90
2022-07-25T20:27:45.854Z,22.90
2022-07-25T20:30:13.384Z,22.90
2022-07-25T20:32:40.281Z,22.90
2022-07-25T20:35:08.351Z,22.90
2022-07-25T20:37:35.645Z,22.80
2022-07-25T20:40:02.955Z,22.80
2022-07-25T20:42:29.914Z,22.70
2022-07-25T20:44:56.838Z,22.70
2022-07-25T20:47:25.082Z,22.60
2022-07-25T20:49:51.971Z,22.60
2022-07-25T20:52:19.022Z,22.50
2022-07-25T20:54:45.920Z,22.40
2022-07-25T20:57:14.175Z,22.30
2022-07-25T20:59:41.105Z,22.30
2022-07-25T21:02:08.102Z,22.30
2022-07-25T21:04:35.089Z,22.20
2022-07-25T21:07:02.015Z,22.10
2022-07-25T21:09:32.857Z,22.10
2022-07-25T21:12:01.485Z,22.00
2022-07-25T21:14:28.780Z,22.10
2022-07-25T21:16:55.763Z,21.90
2022-07-25T21:19:23.404Z,21.90
2022-07-25T21:21:50.571Z,21.80
2022-07-25T21:24:17.787Z,21.80
2022-07-25T21:26:45.370Z,21.80
2022-07-25T21:29:12.459Z,21.70
2022-07-25T21:31:39.570Z,21.70
2022-07-25T21:34:07.020Z,21.60
2022-07-25T21:36:34.280Z,21.60
2022-07-25T21:39:01.143Z,21.50
2022-07-25T21:41:28.377Z,21.40
2022-07-25T21:43:55.373Z,21.40
2022-07-25T21:46:22.377Z,21.40
2022-07-25T21:49:08.567Z,21.40
2022-07-25T21:51:40.987Z,21.40
2022-07-25T21:54:08.374Z,21.30
2022-07-25T21:56:35.222Z,21.20
2022-07-25T21:59:02.198Z,21.20
2022-07-25T22:01:29.494Z,21.20
2022-07-25T22:03:56.451Z,21.10
2022-07-25T22:06:23.465Z,21.10
2022-07-25T22:08:50.540Z,21.10
2022-07-25T22:11:38.981Z,21.10
2022-07-25T22:14:05.489Z,21.10
2022-07-25T22:16:32.498Z,21.00
2022-07-25T22:18:59.849Z,21.00
2022-07-25T22:21:26.803Z,20.90
2022-07-25T22:23:53.798Z,20.90
2022-07-25T22:26:21.356Z,20.90
2022-07-25T22:28:49.460Z,20.80
2022-07-25T22:31:17.754Z,20.80
2022-07-25T22:33:47.507Z,20.80
2022-07-25T22:36:14.364Z,20.80
2022-07-25T22:38:42.975Z,20.70
2022-07-25T22:41:11.308Z,20.60
2022-07-25T22:43:56.510Z,20.60
2022-07-25T22:46:25.655Z,20.60
2022-07-25T22:48:52.660Z,20.50
2022-07-25T22:51:19.927Z,20.50
2022-07-25T22:53:46.868Z,20.40
2022-07-25T22:56:14.045Z,20.40
2022-07-25T22:58:40.929Z,20.40
2022-07-25T23:01:08.069Z,20.30
2022-07-25T23:03:42.745Z,20.20
2022-07-25T23:06:13.199Z,20.20
2022-07-25T23:08:40.945Z,20.20
2022-07-25T23:11:08.480Z,20.10
2022-07-25T23:13:36.277Z,20.10
2022-07-25T23:16:04.380Z,20.10
2022-07-25T23:18:32.387Z,20.00
2022-07-25T23:20:59.883Z,20.00
2022-07-25T23:23:26.976Z,20.00
2022-07-25T23:25:54.273Z,20.00
2022-07-25T23:28:21.253Z,20.00
2022-07-25T23:30:48.281Z,19.90
2022-07-25T23:33:15.144Z,19.90
2022-07-25T23:35:42.359Z,19.80
2022-07-25T23:38:10.832Z,19.80
2022-07-25T23:40:38.267Z,19.80
2022-07-25T23:43:05.352Z,19.80
2022-07-25T23:45:38.774Z,19.70
2022-07-25T23:48:06.655Z,19.70
2022-07-25T23:50:33.971Z,19.70
2022-07-25T23:53:00.858Z,19.60
2022-07-25T23:55:27.961Z,19.60
2022-07-25T23:58:03.958Z,19.60
